Notre Dame, Indiana
Current Conditions -  °F | °C
As of 7:54 AM on Thursday 18 Dec 2014 (Local Time) from KSBN Reporting Station
Overcast Overcast  
Wind Chill: 17°   Ceiling: 1600
Heat Index: 27°   Visibility: 10mi
Dew Point: 21°   Wind: 10mph
Humidity: 78%   Direction: 230°SW
Pressure: 30.26"   Gusts: NA
Location:  41.72°N, 86.25°W
Report Text: KSBN 181254Z 23009KT 10SM OVC016 M03/M06 A3026 RMK AO2 SLP259 T10281061
Loading
Personal Weather Stations






























Interactive Weather Map New forecast layout! Learn more

10-Day Weather Forecast

Advertisements
Track Severe Weather on mobile